Aspers, Pennsylvania
Current Conditions -  °F | °C
As of 12:53 PM on Friday 31 Oct 2014 (Local Time) from KTHV Reporting Station
Overcast Overcast  
Wind Chill: 50°   Ceiling: 5500
Heat Index: 50°   Visibility: 10mi
Dew Point: 35°   Wind: 8mph
Humidity: 57%   Direction: 90°E
Pressure: 29.94"   Gusts: NA
Location:  39.98°N, 77.22°W
Report Text: KTHV 311653Z AUTO 09007KT 10SM OVC055 10/02 A2994 RMK AO2 SLP143 T01000017 $
Loading
Personal Weather Stations






























Interactive Weather Map
Tropical Storm Tracking
New forecast layout! Learn more

10-Day Weather Forecast

Advertisements
Track Severe Weather on mobile